sensor_id;sensor_type;location;lat;lon;timestamp;pressure;altitude;pressure_sealevel;temperature;humidity
51245;BME280;37840;47.562;18.738;2023-02-26T00:36:02;98475.81;;;4.26;62.46
51245;BME280;37840;47.562;18.738;2023-02-26T06:47:23;98857.69;;;3.14;69.92
51245;BME280;37840;47.562;18.738;2023-02-26T06:49:49;98849.87;;;3.12;70.04
51245;BME280;37840;47.562;18.738;2023-02-26T06:52:15;98840.25;;;3.13;69.95
51245;BME280;37840;47.562;18.738;2023-02-26T06:54:41;98838.19;;;3.18;69.99
51245;BME280;37840;47.562;18.738;2023-02-26T06:57:07;98843.44;;;3.18;70.16
51245;BME280;37840;47.562;18.738;2023-02-26T06:59:33;98833.69;;;3.20;70.15
51245;BME280;37840;47.562;18.738;2023-02-26T07:01:59;98822.25;;;3.21;70.10
51245;BME280;37840;47.562;18.738;2023-02-26T07:04:24;98823.88;;;3.23;69.91
51245;BME280;37840;47.562;18.738;2023-02-26T07:06:50;98843.03;;;3.25;69.87
51245;BME280;37840;47.562;18.738;2023-02-26T07:09:17;98837.84;;;3.24;69.94
51245;BME280;37840;47.562;18.738;2023-02-26T07:11:44;98827.44;;;3.22;70.08
51245;BME280;37840;47.562;18.738;2023-02-26T07:14:10;98824.97;;;3.19;70.09
51245;BME280;37840;47.562;18.738;2023-02-26T07:16:36;98812.69;;;3.20;70.28
51245;BME280;37840;47.562;18.738;2023-02-26T07:19:02;98811.50;;;3.25;70.29
51245;BME280;37840;47.562;18.738;2023-02-26T07:21:28;98821.75;;;3.30;70.13
51245;BME280;37840;47.562;18.738;2023-02-26T07:23:54;98844.31;;;3.34;70.08
51245;BME280;37840;47.562;18.738;2023-02-26T07:26:20;98856.41;;;3.37;69.92
51245;BME280;37840;47.562;18.738;2023-02-26T07:28:46;98856.91;;;3.43;69.77
51245;BME280;37840;47.562;18.738;2023-02-26T07:31:12;98858.63;;;3.44;69.50
51245;BME280;37840;47.562;18.738;2023-02-26T07:33:38;98848.00;;;3.46;69.50
51245;BME280;37840;47.562;18.738;2023-02-26T07:36:05;98832.84;;;3.51;69.23
51245;BME280;37840;47.562;18.738;2023-02-26T07:38:31;98844.28;;;3.50;68.92
51245;BME280;37840;47.562;18.738;2023-02-26T07:40:57;98846.75;;;3.53;69.05
51245;BME280;37840;47.562;18.738;2023-02-26T07:43:23;98842.06;;;3.58;68.95
51245;BME280;37840;47.562;18.738;2023-02-26T07:45:52;98855.88;;;3.62;68.72
51245;BME280;37840;47.562;18.738;2023-02-26T07:48:19;98872.50;;;3.62;68.68
51245;BME280;37840;47.562;18.738;2023-02-26T07:50:45;98875.06;;;3.64;68.70
51245;BME280;37840;47.562;18.738;2023-02-26T07:53:11;98881.16;;;3.64;68.77
51245;BME280;37840;47.562;18.738;2023-02-26T07:55:37;98868.50;;;3.71;68.67
51245;BME280;37840;47.562;18.738;2023-02-26T07:58:03;98867.38;;;3.75;68.47
51245;BME280;37840;47.562;18.738;2023-02-26T08:00:29;98873.13;;;3.82;68.08
51245;BME280;37840;47.562;18.738;2023-02-26T08:02:55;98883.38;;;3.86;67.97
51245;BME280;37840;47.562;18.738;2023-02-26T08:05:21;98878.06;;;3.88;68.17
51245;BME280;37840;47.562;18.738;2023-02-26T08:07:47;98873.63;;;3.88;68.17
51245;BME280;37840;47.562;18.738;2023-02-26T08:10:13;98868.84;;;3.95;68.09
51245;BME280;37840;47.562;18.738;2023-02-26T08:12:39;98874.03;;;3.97;67.86
51245;BME280;37840;47.562;18.738;2023-02-26T08:15:05;98872.16;;;3.99;67.78
51245;BME280;37840;47.562;18.738;2023-02-26T08:17:31;98870.91;;;4.06;67.61
51245;BME280;37840;47.562;18.738;2023-02-26T08:19:57;98868.06;;;4.09;67.29
51245;BME280;37840;47.562;18.738;2023-02-26T08:22:23;98885.28;;;4.15;67.06
51245;BME280;37840;47.562;18.738;2023-02-26T08:24:49;98882.31;;;4.21;67.09
51245;BME280;37840;47.562;18.738;2023-02-26T08:27:15;98868.59;;;4.30;67.30
51245;BME280;37840;47.562;18.738;2023-02-26T08:29:41;98863.59;;;4.40;67.14
51245;BME280;37840;47.562;18.738;2023-02-26T08:32:07;98866.56;;;4.49;67.05
51245;BME280;37840;47.562;18.738;2023-02-26T08:34:34;98861.00;;;4.54;66.81
51245;BME280;37840;47.562;18.738;2023-02-26T08:36:59;98877.47;;;4.58;66.54
51245;BME280;37840;47.562;18.738;2023-02-26T08:39:25;98874.84;;;4.58;65.40
51245;BME280;37840;47.562;18.738;2023-02-26T08:41:51;98869.75;;;4.55;65.22
51245;BME280;37840;47.562;18.738;2023-02-26T08:44:17;98868.16;;;4.52;64.69
51245;BME280;37840;47.562;18.738;2023-02-26T08:46:43;98876.88;;;4.53;64.70
51245;BME280;37840;47.562;18.738;2023-02-26T08:49:09;98876.03;;;4.52;64.21
51245;BME280;37840;47.562;18.738;2023-02-26T08:51:35;98882.72;;;4.43;64.39
51245;BME280;37840;47.562;18.738;2023-02-26T08:54:01;98886.47;;;4.39;64.51
51245;BME280;37840;47.562;18.738;2023-02-26T08:56:27;98883.25;;;4.34;64.75
51245;BME280;37840;47.562;18.738;2023-02-26T08:58:53;98895.75;;;4.31;65.03
51245;BME280;37840;47.562;18.738;2023-02-26T09:01:19;98898.03;;;4.37;64.63
51245;BME280;37840;47.562;18.738;2023-02-26T09:03:45;98892.75;;;4.37;64.72
51245;BME280;37840;47.562;18.738;2023-02-26T09:06:11;98887.22;;;4.41;63.95
51245;BME280;37840;47.562;18.738;2023-02-26T09:08:37;98895.03;;;4.43;63.54
51245;BME280;37840;47.562;18.738;2023-02-26T09:11:03;98902.44;;;4.36;63.69
51245;BME280;37840;47.562;18.738;2023-02-26T09:13:30;98900.75;;;4.35;63.67
51245;BME280;37840;47.562;18.738;2023-02-26T09:15:56;98909.09;;;4.27;63.56
51245;BME280;37840;47.562;18.738;2023-02-26T09:18:22;98909.88;;;4.29;63.84
51245;BME280;37840;47.562;18.738;2023-02-26T09:20:48;98908.91;;;4.31;64.17
51245;BME280;37840;47.562;18.738;2023-02-26T09:23:14;98908.63;;;4.35;63.87
51245;BME280;37840;47.562;18.738;2023-02-26T09:25:40;98916.16;;;4.41;64.20
51245;BME280;37840;47.562;18.738;2023-02-26T09:28:06;98922.94;;;4.45;63.71
51245;BME280;37840;47.562;18.738;2023-02-26T09:30:32;98908.47;;;4.53;64.33
51245;BME280;37840;47.562;18.738;2023-02-26T09:32:58;98916.41;;;4.67;64.77
51245;BME280;37840;47.562;18.738;2023-02-26T09:35:24;98918.37;;;4.78;64.52
51245;BME280;37840;47.562;18.738;2023-02-26T09:40:53;98918.50;;;5.05;64.54
51245;BME280;37840;47.562;18.738;2023-02-26T09:43:48;98913.22;;;5.19;64.75
51245;BME280;37840;47.562;18.738;2023-02-26T09:49:26;98912.16;;;5.50;62.22
51245;BME280;37840;47.562;18.738;2023-02-26T09:51:59;98911.84;;;5.55;61.58
51245;BME280;37840;47.562;18.738;2023-02-26T09:54:30;98902.97;;;5.56;61.92
51245;BME280;37840;47.562;18.738;2023-02-26T09:56:59;98897.31;;;5.62;60.49
51245;BME280;37840;47.562;18.738;2023-02-26T09:59:32;98910.31;;;5.65;59.96
51245;BME280;37840;47.562;18.738;2023-02-26T10:02:16;98918.03;;;5.68;59.88
51245;BME280;37840;47.562;18.738;2023-02-26T10:07:22;98941.16;;;5.78;59.62
51245;BME280;37840;47.562;18.738;2023-02-26T10:10:18;98949.44;;;5.86;60.03
51245;BME280;37840;47.562;18.738;2023-02-26T10:12:48;98957.94;;;5.91;58.56
51245;BME280;37840;47.562;18.738;2023-02-26T10:15:24;98968.12;;;5.97;58.74
51245;BME280;37840;47.562;18.738;2023-02-26T10:20:32;98972.87;;;6.05;58.49
51245;BME280;37840;47.562;18.738;2023-02-26T10:23:06;98977.22;;;6.06;58.16
51245;BME280;37840;47.562;18.738;2023-02-26T10:25:41;98981.47;;;6.08;57.45
51245;BME280;37840;47.562;18.738;2023-02-26T10:30:50;98983.66;;;6.02;58.33
51245;BME280;37840;47.562;18.738;2023-02-26T10:33:46;98992.03;;;6.08;58.14
51245;BME280;37840;47.562;18.738;2023-02-26T10:36:27;98989.00;;;6.15;57.76
51245;BME280;37840;47.562;18.738;2023-02-26T10:39:11;98998.41;;;6.19;57.21
51245;BME280;37840;47.562;18.738;2023-02-26T10:41:41;98998.09;;;6.23;57.66
51245;BME280;37840;47.562;18.738;2023-02-26T10:44:17;99002.22;;;6.27;56.70
51245;BME280;37840;47.562;18.738;2023-02-26T10:46:58;99003.41;;;6.36;55.92
51245;BME280;37840;47.562;18.738;2023-02-26T10:52:26;99002.81;;;6.45;55.71
51245;BME280;37840;47.562;18.738;2023-02-26T10:58:05;99008.84;;;6.47;55.15
51245;BME280;37840;47.562;18.738;2023-02-26T11:00:33;99003.06;;;6.55;55.68
51245;BME280;37840;47.562;18.738;2023-02-26T11:03:02;99005.06;;;6.64;54.50
51245;BME280;37840;47.562;18.738;2023-02-26T11:05:31;99005.91;;;6.65;54.40
51245;BME280;37840;47.562;18.738;2023-02-26T11:08:29;99007.53;;;6.67;54.31
51245;BME280;37840;47.562;18.738;2023-02-26T11:11:03;99012.69;;;6.69;54.40
51245;BME280;37840;47.562;18.738;2023-02-26T11:13:34;99006.81;;;6.78;54.29
51245;BME280;37840;47.562;18.738;2023-02-26T11:16:14;99007.84;;;6.88;54.96
51245;BME280;37840;47.562;18.738;2023-02-26T11:18:55;99003.13;;;6.93;54.34
51245;BME280;37840;47.562;18.738;2023-02-26T11:21:29;99003.03;;;6.95;54.13
51245;BME280;37840;47.562;18.738;2023-02-26T11:24:00;99008.59;;;7.03;54.40
51245;BME280;37840;47.562;18.738;2023-02-26T11:26:34;99008.19;;;7.09;54.31
51245;BME280;37840;47.562;18.738;2023-02-26T11:29:01;99012.13;;;7.17;53.43
51245;BME280;37840;47.562;18.738;2023-02-26T11:31:28;99013.47;;;7.09;53.35
51245;BME280;37840;47.562;18.738;2023-02-26T11:34:07;99000.81;;;7.14;54.08
51245;BME280;37840;47.562;18.738;2023-02-26T11:36:38;99006.41;;;7.23;53.32
51245;BME280;37840;47.562;18.738;2023-02-26T11:39:23;99007.91;;;7.27;52.41
51245;BME280;37840;47.562;18.738;2023-02-26T11:41:52;99007.78;;;7.28;51.14
51245;BME280;37840;47.562;18.738;2023-02-26T11:44:33;99011.28;;;7.29;51.86
51245;BME280;37840;47.562;18.738;2023-02-26T11:47:06;99004.28;;;7.28;51.52
51245;BME280;37840;47.562;18.738;2023-02-26T11:49:32;99008.75;;;7.27;49.90
51245;BME280;37840;47.562;18.738;2023-02-26T11:54:35;99016.03;;;7.37;51.18
51245;BME280;37840;47.562;18.738;2023-02-26T11:57:06;99015.50;;;7.44;51.62
51245;BME280;37840;47.562;18.738;2023-02-26T11:59:33;99011.56;;;7.50;49.56
51245;BME280;37840;47.562;18.738;2023-02-26T12:02:10;99016.13;;;7.48;50.22
51245;BME280;37840;47.562;18.738;2023-02-26T12:04:39;99018.66;;;7.49;50.51
51245;BME280;37840;47.562;18.738;2023-02-26T12:07:12;99015.91;;;7.51;49.49
51245;BME280;37840;47.562;18.738;2023-02-26T12:09:38;99023.22;;;7.47;48.97
51245;BME280;37840;47.562;18.738;2023-02-26T12:17:29;99034.63;;;7.48;50.60
51245;BME280;37840;47.562;18.738;2023-02-26T12:31:08;99030.22;;;7.48;50.70
51245;BME280;37840;47.562;18.738;2023-02-26T12:33:55;99035.94;;;7.42;50.96
51245;BME280;37840;47.562;18.738;2023-02-26T12:36:57;99040.06;;;7.46;50.60
51245;BME280;37840;47.562;18.738;2023-02-26T12:39:43;99048.50;;;7.39;50.56
51245;BME280;37840;47.562;18.738;2023-02-26T12:50:54;99061.31;;;7.45;50.45
51245;BME280;37840;47.562;18.738;2023-02-26T12:56:38;99061.97;;;7.48;50.57
51245;BME280;37840;47.562;18.738;2023-02-26T13:01:56;99063.72;;;7.48;50.71
51245;BME280;37840;47.562;18.738;2023-02-26T13:07:39;99068.41;;;7.44;50.02
51245;BME280;37840;47.562;18.738;2023-02-26T13:10:39;99067.53;;;7.44;49.96
51245;BME280;37840;47.562;18.738;2023-02-26T13:13:20;99072.63;;;7.47;49.04
51245;BME280;37840;47.562;18.738;2023-02-26T13:16:08;99079.00;;;7.44;49.61
51245;BME280;37840;47.562;18.738;2023-02-26T13:19:29;99077.50;;;7.40;49.78
51245;BME280;37840;47.562;18.738;2023-02-26T13:21:40;99075.59;;;7.29;50.42
51245;BME280;37840;47.562;18.738;2023-02-26T13:24:16;99072.94;;;7.29;49.74
51245;BME280;37840;47.562;18.738;2023-02-26T13:26:46;99078.97;;;7.31;49.87
51245;BME280;37840;47.562;18.738;2023-02-26T13:29:17;99079.81;;;7.32;50.31
51245;BME280;37840;47.562;18.738;2023-02-26T13:31:51;99083.31;;;7.32;50.53
51245;BME280;37840;47.562;18.738;2023-02-26T13:36:58;99092.94;;;7.33;51.39
51245;BME280;37840;47.562;18.738;2023-02-26T13:45:17;99117.25;;;7.13;54.14
51245;BME280;37840;47.562;18.738;2023-02-26T13:48:55;99112.03;;;7.11;53.79
51245;BME280;37840;47.562;18.738;2023-02-26T13:56:12;99121.66;;;7.00;54.22
51245;BME280;37840;47.562;18.738;2023-02-26T13:58:40;99117.31;;;6.99;53.66
51245;BME280;37840;47.562;18.738;2023-02-26T14:01:18;99129.59;;;7.00;53.34
51245;BME280;37840;47.562;18.738;2023-02-26T14:03:50;99131.47;;;6.98;53.25
51245;BME280;37840;47.562;18.738;2023-02-26T14:06:40;99127.25;;;6.95;53.35
51245;BME280;37840;47.562;18.738;2023-02-26T14:14:33;99145.28;;;6.88;52.98
51245;BME280;37840;47.562;18.738;2023-02-26T14:19:41;99155.63;;;6.79;53.76
51245;BME280;37840;47.562;18.738;2023-02-26T14:22:33;99150.66;;;6.74;54.26
51245;BME280;37840;47.562;18.738;2023-02-26T14:25:00;99154.44;;;6.70;53.19
51245;BME280;37840;47.562;18.738;2023-02-26T14:27:42;99164.44;;;6.65;53.79
51245;BME280;37840;47.562;18.738;2023-02-26T14:38:19;99164.28;;;6.39;55.95
51245;BME280;37840;47.562;18.738;2023-02-26T14:40:50;99167.31;;;6.33;56.47
51245;BME280;37840;47.562;18.738;2023-02-26T14:43:28;99176.13;;;6.33;56.83
51245;BME280;37840;47.562;18.738;2023-02-26T14:45:56;99179.50;;;6.36;56.45
51245;BME280;37840;47.562;18.738;2023-02-26T14:48:22;99172.06;;;6.28;56.68
51245;BME280;37840;47.562;18.738;2023-02-26T15:17:05;99224.84;;;6.13;58.42
51245;BME280;37840;47.562;18.738;2023-02-26T15:24:56;99238.53;;;6.06;57.42
51245;BME280;37840;47.562;18.738;2023-02-26T15:27:22;99236.75;;;6.06;57.78
51245;BME280;37840;47.562;18.738;2023-02-26T15:29:49;99248.13;;;6.07;57.52
51245;BME280;37840;47.562;18.738;2023-02-26T15:32:24;99249.84;;;6.08;57.30
51245;BME280;37840;47.562;18.738;2023-02-26T15:35:16;99251.38;;;6.12;57.45
51245;BME280;37840;47.562;18.738;2023-02-26T15:37:48;99255.00;;;6.09;57.79
51245;BME280;37840;47.562;18.738;2023-02-26T15:40:15;99269.16;;;6.08;57.74
51245;BME280;37840;47.562;18.738;2023-02-26T15:42:43;99256.81;;;6.09;57.44
51245;BME280;37840;47.562;18.738;2023-02-26T15:45:34;99263.88;;;6.08;57.56
51245;BME280;37840;47.562;18.738;2023-02-26T15:48:23;99270.00;;;6.09;58.01
51245;BME280;37840;47.562;18.738;2023-02-26T15:50:53;99271.72;;;6.10;58.17
51245;BME280;37840;47.562;18.738;2023-02-26T15:55:56;99273.78;;;6.05;58.24
51245;BME280;37840;47.562;18.738;2023-02-26T15:58:44;99285.00;;;6.08;58.44
51245;BME280;37840;47.562;18.738;2023-02-26T16:01:20;99290.09;;;6.11;58.32
51245;BME280;37840;47.562;18.738;2023-02-26T16:03:49;99297.25;;;6.09;58.23
51245;BME280;37840;47.562;18.738;2023-02-26T16:06:21;99305.28;;;6.08;58.36
51245;BME280;37840;47.562;18.738;2023-02-26T16:08:48;99309.59;;;6.09;58.42
51245;BME280;37840;47.562;18.738;2023-02-26T16:11:15;99308.00;;;6.06;58.44
51245;BME280;37840;47.562;18.738;2023-02-26T16:13:43;99314.97;;;6.07;58.78
51245;BME280;37840;47.562;18.738;2023-02-26T16:16:21;99309.88;;;6.04;59.03
51245;BME280;37840;47.562;18.738;2023-02-26T16:18:48;99315.16;;;6.04;58.72
51245;BME280;37840;47.562;18.738;2023-02-26T16:21:29;99315.09;;;6.06;58.11
51245;BME280;37840;47.562;18.738;2023-02-26T16:23:56;99323.94;;;6.05;58.06
51245;BME280;37840;47.562;18.738;2023-02-26T16:26:29;99321.38;;;6.03;58.60
51245;BME280;37840;47.562;18.738;2023-02-26T16:28:59;99334.75;;;6.00;58.30
51245;BME280;37840;47.562;18.738;2023-02-26T16:31:26;99338.44;;;5.98;58.49
51245;BME280;37840;47.562;18.738;2023-02-26T16:33:57;99342.25;;;5.92;58.40
51245;BME280;37840;47.562;18.738;2023-02-26T16:36:59;99348.28;;;5.94;58.37
51245;BME280;37840;47.562;18.738;2023-02-26T16:39:29;99347.38;;;5.95;58.68
51245;BME280;37840;47.562;18.738;2023-02-26T16:42:02;99350.34;;;5.89;59.43
51245;BME280;37840;47.562;18.738;2023-02-26T16:46:58;99364.41;;;5.73;60.82
51245;BME280;37840;47.562;18.738;2023-02-26T16:49:29;99364.16;;;5.62;60.88
51245;BME280;37840;47.562;18.738;2023-02-26T16:51:57;99369.28;;;5.49;61.29
51245;BME280;37840;47.562;18.738;2023-02-26T16:54:37;99369.37;;;5.48;61.33
51245;BME280;37840;47.562;18.738;2023-02-26T16:57:10;99382.41;;;5.51;61.50
51245;BME280;37840;47.562;18.738;2023-02-26T16:59:38;99384.28;;;5.49;61.48
51245;BME280;37840;47.562;18.738;2023-02-26T17:02:28;99383.66;;;5.44;61.91
51245;BME280;37840;47.562;18.738;2023-02-26T17:04:59;99391.16;;;5.36;62.19
51245;BME280;37840;47.562;18.738;2023-02-26T17:09:56;99391.59;;;5.28;62.29
51245;BME280;37840;47.562;18.738;2023-02-26T17:12:42;99391.91;;;5.22;62.70
51245;BME280;37840;47.562;18.738;2023-02-26T17:15:18;99392.88;;;5.21;62.86
51245;BME280;37840;47.562;18.738;2023-02-26T17:17:46;99389.53;;;5.17;62.99
51245;BME280;37840;47.562;18.738;2023-02-26T17:20:13;99389.34;;;5.20;62.81
51245;BME280;37840;47.562;18.738;2023-02-26T17:22:41;99398.03;;;5.22;62.86
51245;BME280;37840;47.562;18.738;2023-02-26T17:25:13;99400.84;;;5.19;63.17
51245;BME280;37840;47.562;18.738;2023-02-26T17:27:39;99404.84;;;5.10;63.47
51245;BME280;37840;47.562;18.738;2023-02-26T17:30:06;99402.28;;;5.09;63.59
51245;BME280;37840;47.562;18.738;2023-02-26T17:32:34;99398.94;;;5.05;63.81
51245;BME280;37840;47.562;18.738;2023-02-26T17:35:00;99398.50;;;4.97;64.12
51245;BME280;37840;47.562;18.738;2023-02-26T17:37:31;99402.34;;;4.92;64.73
51245;BME280;37840;47.562;18.738;2023-02-26T17:39:58;99405.66;;;4.95;64.58
51245;BME280;37840;47.562;18.738;2023-02-26T17:42:24;99412.09;;;4.89;64.79
51245;BME280;37840;47.562;18.738;2023-02-26T17:44:50;99404.13;;;4.91;64.58
51245;BME280;37840;47.562;18.738;2023-02-26T17:47:20;99410.62;;;4.84;64.88
51245;BME280;37840;47.562;18.738;2023-02-26T17:49:46;99414.22;;;4.83;64.87
51245;BME280;37840;47.562;18.738;2023-02-26T17:52:13;99409.97;;;4.80;64.91
51245;BME280;37840;47.562;18.738;2023-02-26T17:54:39;99411.72;;;4.80;64.95
51245;BME280;37840;47.562;18.738;2023-02-26T17:57:05;99405.16;;;4.71;65.20
51245;BME280;37840;47.562;18.738;2023-02-26T17:59:32;99411.28;;;4.72;65.37
51245;BME280;37840;47.562;18.738;2023-02-26T18:01:58;99407.97;;;4.68;65.39
51245;BME280;37840;47.562;18.738;2023-02-26T18:04:25;99410.59;;;4.68;65.58
51245;BME280;37840;47.562;18.738;2023-02-26T18:06:51;99412.47;;;4.66;65.89
51245;BME280;37840;47.562;18.738;2023-02-26T18:09:18;99411.75;;;4.62;65.87
51245;BME280;37840;47.562;18.738;2023-02-26T18:11:44;99405.47;;;4.65;65.85
51245;BME280;37840;47.562;18.738;2023-02-26T18:14:10;99410.66;;;4.66;65.79
51245;BME280;37840;47.562;18.738;2023-02-26T18:16:39;99413.47;;;4.63;65.67
51245;BME280;37840;47.562;18.738;2023-02-26T18:19:06;99408.03;;;4.66;64.93
51245;BME280;37840;47.562;18.738;2023-02-26T18:21:32;99410.06;;;4.61;63.39
51245;BME280;37840;47.562;18.738;2023-02-26T18:23:58;99414.47;;;4.61;62.60
51245;BME280;37840;47.562;18.738;2023-02-26T18:26:31;99415.41;;;4.60;61.90
51245;BME280;37840;47.562;18.738;2023-02-26T18:28:57;99416.56;;;4.54;61.47
51245;BME280;37840;47.562;18.738;2023-02-26T18:31:24;99418.59;;;4.49;61.55
51245;BME280;37840;47.562;18.738;2023-02-26T18:33:57;99426.81;;;4.43;61.08
51245;BME280;37840;47.562;18.738;2023-02-26T18:36:29;99425.84;;;4.44;61.12
51245;BME280;37840;47.562;18.738;2023-02-26T18:39:04;99427.50;;;4.46;61.17
51245;BME280;37840;47.562;18.738;2023-02-26T18:41:30;99432.91;;;4.43;61.66
51245;BME280;37840;47.562;18.738;2023-02-26T18:43:57;99431.28;;;4.41;61.03
51245;BME280;37840;47.562;18.738;2023-02-26T18:46:24;99431.22;;;4.42;60.64
51245;BME280;37840;47.562;18.738;2023-02-26T18:48:50;99432.91;;;4.43;59.82
51245;BME280;37840;47.562;18.738;2023-02-26T18:51:16;99430.44;;;4.40;58.89
51245;BME280;37840;47.562;18.738;2023-02-26T18:53:42;99436.69;;;4.38;58.15
51245;BME280;37840;47.562;18.738;2023-02-26T18:56:08;99431.78;;;4.32;57.53
51245;BME280;37840;47.562;18.738;2023-02-26T18:58:34;99430.22;;;4.27;57.13
51245;BME280;37840;47.562;18.738;2023-02-26T19:01:02;99433.06;;;4.23;56.84
51245;BME280;37840;47.562;18.738;2023-02-26T19:03:29;99440.41;;;4.16;56.79
51245;BME280;37840;47.562;18.738;2023-02-26T19:06:01;99433.75;;;4.09;56.83
51245;BME280;37840;47.562;18.738;2023-02-26T19:08:27;99438.31;;;4.05;56.99
51245;BME280;37840;47.562;18.738;2023-02-26T19:10:55;99441.47;;;3.95;57.22
51245;BME280;37840;47.562;18.738;2023-02-26T19:13:22;99437.00;;;3.97;57.35
51245;BME280;37840;47.562;18.738;2023-02-26T19:15:49;99446.59;;;3.98;57.30
51245;BME280;37840;47.562;18.738;2023-02-26T19:18:15;99447.44;;;3.98;56.93
51245;BME280;37840;47.562;18.738;2023-02-26T19:20:41;99450.31;;;3.94;56.61
51245;BME280;37840;47.562;18.738;2023-02-26T19:23:07;99454.84;;;3.90;56.46
51245;BME280;37840;47.562;18.738;2023-02-26T19:25:36;99459.50;;;3.85;56.54
51245;BME280;37840;47.562;18.738;2023-02-26T19:28:03;99455.22;;;3.82;56.52
51245;BME280;37840;47.562;18.738;2023-02-26T19:30:30;99457.94;;;3.81;56.46
51245;BME280;37840;47.562;18.738;2023-02-26T19:32:57;99464.56;;;3.71;56.31
51245;BME280;37840;47.562;18.738;2023-02-26T19:35:23;99458.72;;;3.64;56.40
51245;BME280;37840;47.562;18.738;2023-02-26T19:37:52;99458.50;;;3.68;56.34
51245;BME280;37840;47.562;18.738;2023-02-26T19:40:18;99468.88;;;3.72;56.19
51245;BME280;37840;47.562;18.738;2023-02-26T19:42:45;99467.41;;;3.66;56.29
51245;BME280;37840;47.562;18.738;2023-02-26T19:45:15;99471.09;;;3.62;55.95
51245;BME280;37840;47.562;18.738;2023-02-26T19:47:42;99478.06;;;3.63;56.14
51245;BME280;37840;47.562;18.738;2023-02-26T19:50:08;99484.25;;;3.62;55.80
51245;BME280;37840;47.562;18.738;2023-02-26T19:52:35;99481.63;;;3.62;55.89
51245;BME280;37840;47.562;18.738;2023-02-26T19:55:03;99487.88;;;3.59;56.02
51245;BME280;37840;47.562;18.738;2023-02-26T19:57:29;99492.25;;;3.59;56.04
51245;BME280;37840;47.562;18.738;2023-02-26T19:59:56;99490.78;;;3.53;56.13
51245;BME280;37840;47.562;18.738;2023-02-26T20:02:23;99490.22;;;3.46;56.20
51245;BME280;37840;47.562;18.738;2023-02-26T20:04:49;99494.69;;;3.44;56.47
51245;BME280;37840;47.562;18.738;2023-02-26T20:07:15;99493.91;;;3.42;56.87
51245;BME280;37840;47.562;18.738;2023-02-26T20:09:41;99505.34;;;3.41;56.76
51245;BME280;37840;47.562;18.738;2023-02-26T20:12:07;99503.63;;;3.40;56.54
51245;BME280;37840;47.562;18.738;2023-02-26T20:14:33;99509.75;;;3.41;56.42
51245;BME280;37840;47.562;18.738;2023-02-26T20:16:59;99513.22;;;3.41;56.30
51245;BME280;37840;47.562;18.738;2023-02-26T20:19:25;99515.00;;;3.41;56.29
51245;BME280;37840;47.562;18.738;2023-02-26T20:21:51;99519.59;;;3.36;56.54
51245;BME280;37840;47.562;18.738;2023-02-26T20:24:18;99524.84;;;3.36;56.29
51245;BME280;37840;47.562;18.738;2023-02-26T20:26:45;99522.59;;;3.28;56.32
51245;BME280;37840;47.562;18.738;2023-02-26T20:29:16;99522.69;;;3.25;56.45
51245;BME280;37840;47.562;18.738;2023-02-26T20:31:45;99526.06;;;3.29;56.06
51245;BME280;37840;47.562;18.738;2023-02-26T20:34:15;99533.88;;;3.30;56.19
51245;BME280;37840;47.562;18.738;2023-02-26T20:36:42;99537.41;;;3.29;56.28
51245;BME280;37840;47.562;18.738;2023-02-26T20:39:10;99533.81;;;3.32;56.30
51245;BME280;37840;47.562;18.738;2023-02-26T20:41:36;99544.97;;;3.37;56.25
51245;BME280;37840;47.562;18.738;2023-02-26T20:44:02;99545.41;;;3.28;56.27
51245;BME280;37840;47.562;18.738;2023-02-26T20:46:28;99544.44;;;3.29;56.21
51245;BME280;37840;47.562;18.738;2023-02-26T20:48:55;99551.50;;;3.28;56.05
51245;BME280;37840;47.562;18.738;2023-02-26T20:51:21;99560.16;;;3.30;56.04
51245;BME280;37840;47.562;18.738;2023-02-26T20:53:47;99562.00;;;3.28;55.76
51245;BME280;37840;47.562;18.738;2023-02-26T20:56:13;99562.91;;;3.27;55.96
51245;BME280;37840;47.562;18.738;2023-02-26T20:58:39;99570.88;;;3.25;56.23
51245;BME280;37840;47.562;18.738;2023-02-26T21:01:05;99571.59;;;3.29;56.17
51245;BME280;37840;47.562;18.738;2023-02-26T21:03:31;99581.97;;;3.32;56.18
51245;BME280;37840;47.562;18.738;2023-02-26T21:05:57;99583.81;;;3.30;56.43
51245;BME280;37840;47.562;18.738;2023-02-26T21:08:23;99580.59;;;3.23;56.38
51245;BME280;37840;47.562;18.738;2023-02-26T21:10:50;99592.69;;;3.28;56.49
51245;BME280;37840;47.562;18.738;2023-02-26T21:13:16;99595.50;;;3.23;56.85
51245;BME280;37840;47.562;18.738;2023-02-26T21:15:43;99592.97;;;3.21;56.81
51245;BME280;37840;47.562;18.738;2023-02-26T21:18:09;99593.59;;;3.26;56.68
51245;BME280;37840;47.562;18.738;2023-02-26T21:20:35;99599.00;;;3.23;56.47
51245;BME280;37840;47.562;18.738;2023-02-26T21:23:01;99605.16;;;3.22;56.69
51245;BME280;37840;47.562;18.738;2023-02-26T21:25:27;99609.63;;;3.20;56.82
51245;BME280;37840;47.562;18.738;2023-02-26T21:27:56;99620.34;;;3.16;56.87
51245;BME280;37840;47.562;18.738;2023-02-26T21:30:22;99624.75;;;3.15;56.82
51245;BME280;37840;47.562;18.738;2023-02-26T21:32:49;99618.50;;;3.18;56.97
51245;BME280;37840;47.562;18.738;2023-02-26T21:35:16;99620.09;;;3.22;56.78
51245;BME280;37840;47.562;18.738;2023-02-26T21:37:43;99627.03;;;3.23;56.87
51245;BME280;37840;47.562;18.738;2023-02-26T21:40:10;99618.66;;;3.15;56.86
51245;BME280;37840;47.562;18.738;2023-02-26T21:42:36;99616.91;;;3.14;56.74
51245;BME280;37840;47.562;18.738;2023-02-26T21:45:03;99621.59;;;3.07;56.64
51245;BME280;37840;47.562;18.738;2023-02-26T21:47:29;99616.78;;;2.96;56.81
51245;BME280;37840;47.562;18.738;2023-02-26T21:49:54;99616.06;;;2.93;56.36
51245;BME280;37840;47.562;18.738;2023-02-26T21:52:20;99617.03;;;2.90;56.35
51245;BME280;37840;47.562;18.738;2023-02-26T21:54:46;99618.09;;;2.86;56.48
51245;BME280;37840;47.562;18.738;2023-02-26T21:57:12;99615.34;;;2.89;56.56
51245;BME280;37840;47.562;18.738;2023-02-26T21:59:38;99616.19;;;2.90;56.19
51245;BME280;37840;47.562;18.738;2023-02-26T22:02:04;99618.94;;;2.86;56.16
51245;BME280;37840;47.562;18.738;2023-02-26T22:04:30;99624.97;;;2.89;56.14